Time;durP1;ratioP1;P1;durP2;ratioP2;P2;SDS_P1;SDS_P2;PMS_P1;PMS_P2;Temp;Humidity;BMP_temperature;BMP_pressure;BME280_temperature;BME280_humidity;BME280_pressure;Samples;Min_cycle;Max_cycle;Signal;HPM_P1;HPM_P2
2021/10/06 00:00:42;;;;;;;8.93;5.50;;;;;;;-143.90;100.00;58478.06;5071509;28;20661;-80
2021/10/06 00:03:08;;;;;;;10.33;6.23;;;;;;;-143.90;100.00;58478.06;5072194;28;20407;-81
2021/10/06 00:05:33;;;;;;;7.83;5.10;;;;;;;-143.90;100.00;58478.06;5071412;28;20265;-84
2021/10/06 00:07:59;;;;;;;12.30;5.50;;;;;;;-143.90;100.00;58478.06;5071797;28;20543;-85
2021/10/06 00:10:24;;;;;;;12.07;5.33;;;;;;;-143.90;100.00;58478.06;5070946;28;20176;-82
2021/10/06 00:12:50;;;;;;;7.80;4.67;;;;;;;-143.90;100.00;58478.06;5072233;28;20188;-83
2021/10/06 00:15:16;;;;;;;12.90;5.30;;;;;;;-143.90;100.00;58478.06;5070426;28;20685;-82
2021/10/06 00:17:42;;;;;;;14.70;5.97;;;;;;;-143.90;100.00;58478.06;5071917;28;20199;-81
2021/10/06 00:20:10;;;;;;;8.53;5.50;;;;;;;-143.90;100.00;58478.06;5070767;28;20637;-83
2021/10/06 00:22:36;;;;;;;12.10;5.77;;;;;;;-143.90;100.00;58478.06;5070580;28;20426;-78
2021/10/06 00:25:01;;;;;;;9.00;5.73;;;;;;;-143.90;100.00;58478.06;5069612;28;20429;-80
2021/10/06 00:27:27;;;;;;;11.10;6.10;;;;;;;-143.90;100.00;58478.06;5070636;28;20269;-82
2021/10/06 00:29:52;;;;;;;8.77;5.70;;;;;;;-143.90;100.00;58478.06;5069267;28;20176;-82
2021/10/06 00:32:18;;;;;;;11.87;7.17;;;;;;;-143.90;100.00;58478.06;5068957;28;20269;-83
2021/10/06 00:34:43;;;;;;;9.87;4.87;;;;;;;-143.90;100.00;58478.06;5070646;28;20195;-82
2021/10/06 00:37:09;;;;;;;12.10;5.83;;;;;;;-143.90;100.00;58478.06;5070281;28;20658;-82
2021/10/06 00:39:34;;;;;;;10.33;6.03;;;;;;;-143.90;100.00;58478.06;5069941;28;20220;-83
2021/10/06 00:42:00;;;;;;;8.63;5.30;;;;;;;-143.90;100.00;58478.06;5070695;28;20554;-83
2021/10/06 00:44:35;;;;;;;10.50;4.87;;;;;;;-143.90;100.00;58478.06;5069937;28;20176;-83
2021/10/06 00:47:01;;;;;;;14.50;6.50;;;;;;;-143.90;100.00;58478.06;5070803;28;20183;-83
2021/10/06 00:49:26;;;;;;;8.80;4.73;;;;;;;-143.90;100.00;58478.06;5070109;28;20414;-83
2021/10/06 00:51:52;;;;;;;12.30;5.20;;;;;;;-143.90;100.00;58478.06;5070692;28;20172;-82
2021/10/06 00:54:18;;;;;;;11.83;5.60;;;;;;;-143.90;100.00;58478.06;5071293;28;20658;-87
2021/10/06 00:56:43;;;;;;;13.20;6.07;;;;;;;-143.90;100.00;58478.06;5071088;28;20625;-86
2021/10/06 00:59:09;;;;;;;11.67;5.13;;;;;;;-143.90;100.00;58478.06;5071733;28;20179;-86
2021/10/06 01:01:34;;;;;;;10.53;6.13;;;;;;;-143.90;100.00;58478.06;5070942;28;20217;-84
2021/10/06 01:04:02;;;;;;;11.60;5.53;;;;;;;-143.90;100.00;58478.06;5069504;28;20172;-83
2021/10/06 01:06:28;;;;;;;8.53;4.90;;;;;;;-143.90;100.00;58478.06;5070700;28;20574;-77
2021/10/06 01:08:56;;;;;;;11.30;5.67;;;;;;;-143.90;100.00;58478.06;5071464;28;20513;-76
2021/10/06 01:11:22;;;;;;;9.80;5.70;;;;;;;-143.90;100.00;58478.06;5070457;28;20422;-76
2021/10/06 01:13:47;;;;;;;10.27;4.70;;;;;;;-143.90;100.00;58478.06;5070319;28;20437;-80
2021/10/06 01:16:13;;;;;;;8.97;4.90;;;;;;;-143.90;100.00;58478.06;5070010;28;20311;-81
2021/10/06 01:18:39;;;;;;;8.90;5.37;;;;;;;-143.90;100.00;58478.06;5070332;28;20206;-74
2021/10/06 01:21:18;;;;;;;9.80;5.13;;;;;;;-143.90;100.00;58478.06;5070840;28;20465;-76
2021/10/06 01:23:49;;;;;;;9.33;5.17;;;;;;;-143.90;100.00;58478.06;5069613;28;20631;-75
2021/10/06 01:26:18;;;;;;;10.30;4.30;;;;;;;-143.90;100.00;58478.06;5069668;28;20418;-81
2021/10/06 01:28:53;;;;;;;15.27;5.17;;;;;;;-143.90;100.00;58478.06;5065386;28;20418;-80
2021/10/06 01:31:24;;;;;;;8.40;4.10;;;;;;;-143.90;100.00;58478.06;5065745;28;20451;-72
2021/10/06 01:33:49;;;;;;;9.10;4.40;;;;;;;-143.90;100.00;58478.06;5062331;28;20422;-82
2021/10/06 01:36:15;;;;;;;9.33;4.33;;;;;;;-143.90;100.00;58478.06;5069916;28;20422;-75
2021/10/06 01:38:40;;;;;;;8.63;3.93;;;;;;;-143.90;100.00;58478.06;5070342;28;20269;-79
2021/10/06 01:41:06;;;;;;;10.80;4.17;;;;;;;-143.90;100.00;58478.06;5072340;28;20176;-84
2021/10/06 01:43:31;;;;;;;10.30;4.00;;;;;;;-143.90;100.00;58478.06;5074693;28;20187;-81
2021/10/06 01:45:57;;;;;;;11.27;4.47;;;;;;;-143.90;100.00;58478.06;5074534;28;20188;-84
2021/10/06 01:48:23;;;;;;;7.93;3.93;;;;;;;-143.90;100.00;58478.06;5074639;28;20342;-75
2021/10/06 01:50:48;;;;;;;9.50;4.23;;;;;;;-143.90;100.00;58478.06;5074271;28;20175;-84
2021/10/06 01:53:15;;;;;;;11.30;4.97;;;;;;;-143.90;100.00;58478.06;5075856;28;20161;-85
2021/10/06 01:55:42;;;;;;;12.67;4.50;;;;;;;-143.90;100.00;58478.06;5074292;28;20210;-79
2021/10/06 01:58:17;;;;;;;14.93;4.87;;;;;;;-143.90;100.00;58478.06;5073886;28;20466;-76
2021/10/06 02:00:47;;;;;;;8.07;4.23;;;;;;;-143.90;100.00;58478.06;5074052;28;20449;-78
2021/10/06 02:03:13;;;;;;;9.67;4.63;;;;;;;-143.90;100.00;58478.06;5074015;28;20814;-80
2021/10/06 02:05:38;;;;;;;14.13;4.30;;;;;;;-143.90;100.00;58478.06;5073234;28;20505;-79
2021/10/06 02:08:05;;;;;;;8.60;4.70;;;;;;;-143.90;100.00;58478.06;5072835;28;20203;-75
2021/10/06 02:10:31;;;;;;;8.10;4.00;;;;;;;-143.90;100.00;58478.06;5073314;28;20176;-78
2021/10/06 02:12:57;;;;;;;8.50;4.30;;;;;;;-143.90;100.00;58478.06;5073404;28;20500;-79
2021/10/06 02:15:23;;;;;;;9.93;4.60;;;;;;;-143.90;100.00;58478.06;5072681;28;20469;-79
2021/10/06 02:17:50;;;;;;;10.23;4.53;;;;;;;-143.90;100.00;58478.06;5073392;28;20430;-83
2021/10/06 02:20:15;;;;;;;7.93;4.17;;;;;;;-143.90;100.00;58478.06;5072346;28;20435;-81
2021/10/06 02:22:42;;;;;;;7.00;4.00;;;;;;;-143.90;100.00;58478.06;5073717;28;20450;-77
2021/10/06 02:25:08;;;;;;;13.63;5.07;;;;;;;-143.90;100.00;58478.06;5072423;28;20662;-71
2021/10/06 02:27:34;;;;;;;11.03;4.83;;;;;;;-143.90;100.00;58478.06;5073358;28;20855;-79
2021/10/06 02:30:00;;;;;;;7.80;4.30;;;;;;;-143.90;100.00;58478.06;5072244;28;20484;-74
2021/10/06 02:32:26;;;;;;;8.33;4.50;;;;;;;-143.90;100.00;58478.06;5073287;28;20411;-71
2021/10/06 02:34:52;;;;;;;9.80;4.50;;;;;;;-143.90;100.00;58478.06;5055073;28;20204;-71
2021/10/06 02:37:17;;;;;;;8.40;5.40;;;;;;;-143.90;100.00;58478.06;5072785;28;20214;-73
2021/10/06 02:39:43;;;;;;;12.97;4.43;;;;;;;-143.90;100.00;58478.06;5088699;28;20656;-79
2021/10/06 02:42:09;;;;;;;10.93;4.83;;;;;;;-143.90;100.00;58478.06;5073221;28;20630;-73
2021/10/06 02:44:34;;;;;;;11.33;5.13;;;;;;;-143.90;100.00;58478.06;5073223;28;20630;-79
2021/10/06 02:47:02;;;;;;;8.17;4.20;;;;;;;-143.90;100.00;58478.06;5073447;28;20161;-77
2021/10/06 02:49:27;;;;;;;9.87;4.70;;;;;;;-143.90;100.00;58478.06;5073022;28;20172;-78
2021/10/06 02:51:53;;;;;;;9.57;4.83;;;;;;;-143.90;100.00;58478.06;5071872;28;20426;-80
2021/10/06 02:54:19;;;;;;;8.90;4.20;;;;;;;-143.90;100.00;58478.06;5072109;28;20208;-83
2021/10/06 02:56:45;;;;;;;7.90;4.07;;;;;;;-143.90;100.00;58478.06;5071781;28;20458;-81
2021/10/06 02:59:10;;;;;;;11.50;4.50;;;;;;;-143.90;100.00;58478.06;5070916;28;20176;-81
2021/10/06 03:01:35;;;;;;;11.00;4.90;;;;;;;-143.90;100.00;58478.06;5072816;28;20247;-76
2021/10/06 03:04:01;;;;;;;9.53;5.00;;;;;;;-143.90;100.00;58478.06;5071930;28;20180;-78
2021/10/06 03:06:27;;;;;;;9.37;4.70;;;;;;;-143.90;100.00;58478.06;5072722;28;20305;-79
2021/10/06 03:08:54;;;;;;;12.73;4.90;;;;;;;-143.90;100.00;58478.06;5072547;28;20422;-74
2021/10/06 03:11:21;;;;;;;9.47;4.77;;;;;;;-143.90;100.00;58478.06;5072307;28;20172;-81
2021/10/06 03:13:47;;;;;;;11.60;5.30;;;;;;;-143.90;100.00;58478.06;5072484;28;20779;-75
2021/10/06 03:16:12;;;;;;;9.63;4.60;;;;;;;-143.90;100.00;58478.06;5087479;28;20967;-82
2021/10/06 03:18:38;;;;;;;11.73;4.33;;;;;;;-143.90;100.00;58478.06;5071313;28;20251;-79
2021/10/06 03:21:03;;;;;;;13.23;4.20;;;;;;;-143.90;100.00;58478.06;5071699;28;20569;-80
2021/10/06 03:23:29;;;;;;;12.50;4.90;;;;;;;-143.90;100.00;58478.06;5072160;28;20199;-84
2021/10/06 03:25:54;;;;;;;7.80;4.07;;;;;;;-143.90;100.00;58478.06;5071693;28;20592;-80
2021/10/06 03:28:20;;;;;;;12.03;4.80;;;;;;;-143.90;100.00;58478.06;5071951;28;20178;-84
2021/10/06 03:30:45;;;;;;;9.97;4.30;;;;;;;-143.90;100.00;58478.06;5069754;28;20172;-76
2021/10/06 03:33:11;;;;;;;11.03;4.60;;;;;;;-143.90;100.00;58478.06;5071586;28;20171;-82
2021/10/06 03:35:36;;;;;;;8.87;4.50;;;;;;;-143.90;100.00;58478.06;5071354;28;20196;-82
2021/10/06 03:38:02;;;;;;;10.30;4.43;;;;;;;-143.90;100.00;58478.06;5071676;28;20690;-77
2021/10/06 03:40:28;;;;;;;8.10;4.10;;;;;;;-143.90;100.00;58478.06;5070722;28;20176;-77
2021/10/06 03:42:54;;;;;;;8.60;4.80;;;;;;;-143.90;100.00;58478.06;5072167;28;20652;-82
2021/10/06 03:45:20;;;;;;;9.30;5.50;;;;;;;-143.90;100.00;58478.06;5071223;28;20168;-77
2021/10/06 03:47:45;;;;;;;8.97;4.20;;;;;;;-143.90;100.00;58478.06;5071397;28;20860;-82
2021/10/06 03:50:13;;;;;;;11.00;5.40;;;;;;;-143.90;100.00;58478.06;5070519;28;20195;-79
2021/10/06 03:52:38;;;;;;;10.40;5.40;;;;;;;-143.90;100.00;58478.06;5064561;28;20211;-81
2021/10/06 03:55:08;;;;;;;10.47;5.63;;;;;;;-143.90;100.00;58478.06;5070611;28;20490;-77
2021/10/06 03:57:34;;;;;;;18.83;5.83;;;;;;;-143.90;100.00;58478.06;5071577;28;20267;-74
2021/10/06 03:59:59;;;;;;;8.60;5.10;;;;;;;-143.90;100.00;58478.06;5070880;28;20505;-78
2021/10/06 04:02:25;;;;;;;9.57;5.40;;;;;;;-143.90;100.00;58478.06;5070649;28;20177;-74
2021/10/06 04:04:50;;;;;;;12.27;5.87;;;;;;;-143.90;100.00;58478.06;5070747;28;20668;-74
2021/10/06 04:07:16;;;;;;;10.37;5.30;;;;;;;-143.90;100.00;58478.06;5070376;28;20184;-83
2021/10/06 04:09:42;;;;;;;8.57;4.20;;;;;;;-143.90;100.00;58478.06;5071379;28;20180;-76
2021/10/06 04:12:08;;;;;;;9.47;5.03;;;;;;;-143.90;100.00;58478.06;5071970;28;20160;-85
2021/10/06 04:14:33;;;;;;;9.47;4.90;;;;;;;-143.90;100.00;58478.06;5069108;28;20209;-82
2021/10/06 04:16:59;;;;;;;12.90;4.90;;;;;;;-143.90;100.00;58478.06;5071079;28;20417;-83
2021/10/06 04:19:24;;;;;;;13.57;4.80;;;;;;;-143.90;100.00;58478.06;5070175;28;20195;-72
2021/10/06 04:21:50;;;;;;;11.27;4.50;;;;;;;-143.90;100.00;58478.06;5070077;28;20172;-78
2021/10/06 04:24:15;;;;;;;17.43;5.50;;;;;;;-143.90;100.00;58478.06;5069825;28;20184;-78
2021/10/06 04:26:41;;;;;;;12.17;5.37;;;;;;;-143.90;100.00;58478.06;5069500;28;20277;-78
2021/10/06 04:29:07;;;;;;;12.40;5.80;;;;;;;-143.90;100.00;58478.06;5069954;28;20176;-82
2021/10/06 04:31:33;;;;;;;13.40;6.07;;;;;;;-143.90;100.00;58478.06;5071078;28;20203;-80
2021/10/06 04:33:58;;;;;;;10.23;5.40;;;;;;;-143.90;100.00;58478.06;5070235;28;20509;-83
2021/10/06 04:36:24;;;;;;;8.80;4.50;;;;;;;-143.90;100.00;58478.06;5070234;28;20203;-85
2021/10/06 04:38:49;;;;;;;10.50;4.70;;;;;;;-143.90;100.00;58478.06;5070175;28;20270;-79
2021/10/06 04:41:15;;;;;;;10.17;4.97;;;;;;;-143.90;100.00;58478.06;5070222;28;20714;-83
2021/10/06 04:43:42;;;;;;;11.40;5.07;;;;;;;-143.90;100.00;58478.06;5071072;28;20589;-73
2021/10/06 04:46:07;;;;;;;12.83;5.23;;;;;;;-143.90;100.00;58478.06;5070323;28;20457;-75
2021/10/06 04:48:33;;;;;;;8.60;4.93;;;;;;;-143.90;100.00;58478.06;5071251;28;20634;-83
2021/10/06 04:50:58;;;;;;;10.07;6.00;;;;;;;-143.90;100.00;58478.06;5071162;28;20203;-77
2021/10/06 04:53:23;;;;;;;10.03;4.80;;;;;;;-143.90;100.00;58478.06;5071879;28;20626;-83
2021/10/06 04:55:49;;;;;;;12.87;4.20;;;;;;;-143.90;100.00;58478.06;5069889;28;20196;-83
2021/10/06 04:58:15;;;;;;;12.23;6.43;;;;;;;-143.90;100.00;58478.06;5071051;28;20194;-80
2021/10/06 05:00:40;;;;;;;12.73;6.10;;;;;;;-143.90;100.00;58478.06;5070252;28;20184;-81
2021/10/06 05:03:14;;;;;;;10.93;4.87;;;;;;;-143.90;100.00;58478.06;5070336;28;20195;-82
2021/10/06 05:05:41;;;;;;;16.27;6.70;;;;;;;-143.90;100.00;58478.06;5070678;28;20161;-87
2021/10/06 05:08:07;;;;;;;11.10;6.30;;;;;;;-143.90;100.00;58478.06;5072716;28;20429;-74
2021/10/06 05:10:33;;;;;;;16.13;6.87;;;;;;;-143.90;100.00;58478.06;5072272;28;20426;-74
2021/10/06 05:12:59;;;;;;;10.93;5.77;;;;;;;-143.90;100.00;58478.06;5070720;28;20424;-80
2021/10/06 05:15:24;;;;;;;12.20;6.40;;;;;;;-143.90;100.00;58478.06;5070038;28;20550;-82
2021/10/06 05:17:50;;;;;;;13.30;6.63;;;;;;;-143.90;100.00;58478.06;5075495;28;20176;-79
2021/10/06 05:20:16;;;;;;;25.90;7.70;;;;;;;-143.90;100.00;58478.06;5073941;28;20672;-76
2021/10/06 05:22:41;;;;;;;14.37;7.67;;;;;;;-143.90;100.00;58478.06;5075080;28;20716;-79
2021/10/06 05:25:07;;;;;;;24.33;8.37;;;;;;;-143.90;100.00;58478.06;5076510;28;20180;-77
2021/10/06 05:27:33;;;;;;;15.50;8.30;;;;;;;-143.90;100.00;58478.06;5076838;28;20164;-80
2021/10/06 05:30:00;;;;;;;13.90;7.73;;;;;;;-143.90;100.00;58478.06;5076271;28;20478;-80
2021/10/06 05:32:26;;;;;;;15.37;8.50;;;;;;;-143.90;100.00;58478.06;5077362;28;20167;-83
2021/10/06 05:34:51;;;;;;;15.33;8.43;;;;;;;-143.90;100.00;58478.06;5073796;28;20760;-76
2021/10/06 05:37:17;;;;;;;22.07;9.43;;;;;;;-143.90;100.00;58478.06;5074598;28;20410;-75
2021/10/06 05:39:42;;;;;;;14.47;8.13;;;;;;;-143.90;100.00;58478.06;5054904;28;20225;-81
2021/10/06 05:42:08;;;;;;;12.23;8.00;;;;;;;-143.90;100.00;58478.06;5054246;28;20615;-79
2021/10/06 05:44:34;;;;;;;19.27;7.70;;;;;;;-143.90;100.00;58478.06;5054145;28;20173;-76
2021/10/06 05:46:59;;;;;;;18.47;9.47;;;;;;;-143.90;100.00;58478.06;5054087;28;20165;-77
2021/10/06 05:49:25;;;;;;;21.00;9.30;;;;;;;-143.90;100.00;58478.06;5053644;28;20521;-83
2021/10/06 05:51:51;;;;;;;16.67;8.77;;;;;;;-143.90;100.00;58478.06;5054036;28;20184;-78
2021/10/06 05:54:16;;;;;;;15.60;8.90;;;;;;;-143.90;100.00;58478.06;5054427;28;20822;-80
2021/10/06 05:56:44;;;;;;;12.63;7.77;;;;;;;-143.90;100.00;58478.06;5070483;28;20193;-74
2021/10/06 05:59:09;;;;;;;20.23;8.97;;;;;;;-143.90;100.00;58478.06;5054359;28;20169;-78
2021/10/06 06:01:35;;;;;;;17.03;8.10;;;;;;;-143.90;100.00;58478.06;5069622;28;20509;-82
2021/10/06 06:04:00;;;;;;;13.97;8.40;;;;;;;-143.90;100.00;58478.06;5062872;28;20177;-79
2021/10/06 06:06:26;;;;;;;13.33;6.97;;;;;;;-143.90;100.00;58478.06;5052829;28;20181;-76
2021/10/06 06:08:52;;;;;;;25.23;9.87;;;;;;;-143.90;100.00;58478.06;5052797;28;20631;-78
2021/10/06 06:11:17;;;;;;;14.50;8.33;;;;;;;-143.90;100.00;58478.06;5053907;28;20172;-81
2021/10/06 06:13:43;;;;;;;19.33;8.50;;;;;;;-143.90;100.00;58478.06;5053884;28;20201;-82
2021/10/06 06:16:08;;;;;;;14.63;7.87;;;;;;;-143.90;100.00;58478.06;5053585;28;20197;-76
2021/10/06 06:18:34;;;;;;;20.87;8.93;;;;;;;-143.90;100.00;58478.06;5047617;28;20181;-83
2021/10/06 06:20:59;;;;;;;16.60;8.07;;;;;;;-143.90;100.00;58478.06;5054117;28;20176;-79
2021/10/06 06:23:26;;;;;;;14.10;8.10;;;;;;;-143.90;100.00;58478.06;5053199;28;20181;-82
2021/10/06 06:25:52;;;;;;;16.60;7.47;;;;;;;-143.90;100.00;58478.06;5052942;28;20196;-73
2021/10/06 06:28:18;;;;;;;18.30;7.87;;;;;;;-143.90;100.00;58478.06;5051441;28;20399;-77
2021/10/06 06:30:44;;;;;;;18.87;7.93;;;;;;;-143.90;100.00;58478.06;5052172;28;20776;-75
2021/10/06 06:33:09;;;;;;;12.93;7.30;;;;;;;-143.90;100.00;58478.06;5051996;28;20427;-76
2021/10/06 06:35:35;;;;;;;15.50;7.50;;;;;;;-143.90;100.00;58478.06;5052719;28;20204;-76
2021/10/06 06:38:01;;;;;;;14.00;5.40;;;;;;;-143.90;100.00;58478.06;5057533;28;20220;-73
2021/10/06 06:40:26;;;;;;;15.77;4.63;;;;;;;-143.90;100.00;58478.06;5088369;28;20620;-72
2021/10/06 06:42:52;;;;;;;14.97;5.00;;;;;;;-143.90;100.00;58478.06;5071935;28;20251;-73
2021/10/06 06:45:18;;;;;;;25.93;6.17;;;;;;;-143.90;100.00;58478.06;5072889;28;20160;-76
2021/10/06 06:47:43;;;;;;;7.40;4.13;;;;;;;-143.90;100.00;58478.06;5072129;28;20178;-78
2021/10/06 06:50:12;;;;;;;8.23;4.13;;;;;;;-143.90;100.00;58478.06;5072325;28;20255;-75
2021/10/06 06:52:37;;;;;;;11.20;4.63;;;;;;;-143.90;100.00;58478.06;5072596;28;20650;-77
2021/10/06 06:55:04;;;;;;;12.70;5.07;;;;;;;-143.90;100.00;58478.06;5066375;28;20549;-75
2021/10/06 06:57:30;;;;;;;10.00;5.57;;;;;;;-143.90;100.00;58478.06;5065936;28;20181;-78
2021/10/06 06:59:55;;;;;;;10.10;4.30;;;;;;;-143.90;100.00;58478.06;5072403;28;20426;-80
2021/10/06 07:02:22;;;;;;;17.07;5.03;;;;;;;-143.90;100.00;58478.06;5074495;28;20230;-78
2021/10/06 07:04:48;;;;;;;12.83;4.50;;;;;;;-143.90;100.00;58478.06;5075849;28;20733;-87
2021/10/06 07:07:14;;;;;;;13.00;4.57;;;;;;;-143.90;100.00;58478.06;5074095;28;20578;-82
2021/10/06 07:09:48;;;;;;;12.60;5.00;;;;;;;-143.90;100.00;58478.06;5055123;28;20176;-73
2021/10/06 07:12:19;;;;;;;10.90;4.23;;;;;;;-143.90;100.00;58478.06;5071818;28;20516;-81
2021/10/06 07:14:46;;;;;;;8.00;3.90;;;;;;;-143.90;100.00;58478.06;5074190;28;20446;-82
2021/10/06 07:17:12;;;;;;;10.80;4.50;;;;;;;-143.90;100.00;58478.06;5072161;28;20415;-78
2021/10/06 07:19:38;;;;;;;19.73;4.80;;;;;;;-143.90;100.00;58478.06;5072101;28;20853;-73
2021/10/06 07:22:04;;;;;;;11.90;4.97;;;;;;;-143.90;100.00;58478.06;5071155;28;20172;-82
2021/10/06 07:24:30;;;;;;;11.03;3.77;;;;;;;-143.90;100.00;58478.06;5072350;28;20172;-74
2021/10/06 07:26:56;;;;;;;9.53;5.57;;;;;;;-143.90;100.00;58478.06;5063663;28;20479;-77
2021/10/06 07:29:21;;;;;;;11.77;5.10;;;;;;;-143.90;100.00;58478.06;5069792;28;20580;-73
2021/10/06 07:31:47;;;;;;;9.50;4.07;;;;;;;-143.90;100.00;58478.06;5061123;28;20176;-74
2021/10/06 07:34:12;;;;;;;8.03;3.90;;;;;;;-143.90;100.00;58478.06;5071380;28;20200;-79
2021/10/06 07:36:38;;;;;;;15.23;4.60;;;;;;;-143.90;100.00;58478.06;5071885;28;20196;-75
2021/10/06 07:39:05;;;;;;;11.87;5.63;;;;;;;-143.90;100.00;58478.06;5071836;28;20701;-73
2021/10/06 07:41:31;;;;;;;16.53;6.90;;;;;;;-143.90;100.00;58478.06;5074052;28;20176;-73
2021/10/06 07:43:56;;;;;;;15.00;5.83;;;;;;;-143.90;100.00;58478.06;5072457;28;20413;-71
2021/10/06 07:46:22;;;;;;;10.93;4.27;;;;;;;-143.90;100.00;58478.06;5071375;28;20173;-76
2021/10/06 07:48:47;;;;;;;11.33;4.83;;;;;;;-143.90;100.00;58478.06;5071481;28;20161;-76
2021/10/06 07:51:13;;;;;;;14.50;4.27;;;;;;;-143.90;100.00;58478.06;5071092;28;20280;-75
2021/10/06 07:53:45;;;;;;;7.17;4.00;;;;;;;-143.90;100.00;58478.06;5070010;28;20179;-79
2021/10/06 07:56:11;;;;;;;10.03;5.00;;;;;;;-143.90;100.00;58478.06;5070336;28;20196;-78
2021/10/06 07:58:37;;;;;;;8.50;4.43;;;;;;;-143.90;100.00;58478.06;5069375;28;20418;-76
2021/10/06 08:01:03;;;;;;;15.53;3.77;;;;;;;-143.90;100.00;58478.06;5070215;28;20282;-71
2021/10/06 08:03:28;;;;;;;9.60;3.60;;;;;;;-143.90;100.00;58478.06;5074746;28;20188;-74
2021/10/06 08:05:54;;;;;;;7.70;2.90;;;;;;;-143.90;100.00;58478.06;5070801;28;20483;-76
2021/10/06 08:08:26;;;;;;;12.10;3.20;;;;;;;-143.90;100.00;58478.06;5070630;28;20202;-75
2021/10/06 08:10:52;;;;;;;8.27;3.67;;;;;;;-143.90;100.00;58478.06;5068076;28;20179;-79
2021/10/06 08:13:17;;;;;;;10.00;4.27;;;;;;;-143.90;100.00;58478.06;5069609;28;20423;-74
2021/10/06 08:15:43;;;;;;;9.30;3.33;;;;;;;-143.90;100.00;58478.06;5068909;28;20204;-71
2021/10/06 08:18:08;;;;;;;9.83;3.20;;;;;;;-143.90;100.00;58478.06;5070518;28;20261;-77
2021/10/06 08:20:34;;;;;;;10.10;3.30;;;;;;;-143.90;100.00;58478.06;5071505;28;20645;-74
2021/10/06 08:23:01;;;;;;;7.70;3.10;;;;;;;-143.90;100.00;58478.06;5052348;28;20172;-69
2021/10/06 08:25:27;;;;;;;7.07;2.90;;;;;;;-143.90;100.00;58478.06;5070792;28;20172;-80
2021/10/06 08:27:54;;;;;;;13.67;3.33;;;;;;;-143.90;100.00;58478.06;5070214;28;20414;-79
2021/10/06 08:30:20;;;;;;;7.90;2.87;;;;;;;-143.90;100.00;58478.06;5071520;28;20517;-70
2021/10/06 08:32:46;;;;;;;10.90;2.90;;;;;;;-143.90;100.00;58478.06;5070894;28;20457;-77
2021/10/06 08:35:11;;;;;;;7.60;3.20;;;;;;;-143.90;100.00;58478.06;5070736;28;20470;-71
2021/10/06 08:37:37;;;;;;;7.83;2.67;;;;;;;-143.90;100.00;58478.06;5070749;28;20229;-74
2021/10/06 08:40:04;;;;;;;6.27;3.60;;;;;;;-143.90;100.00;58478.06;5070917;28;20168;-80
2021/10/06 08:42:31;;;;;;;7.47;2.50;;;;;;;-143.90;100.00;58478.06;5070520;28;20192;-77
2021/10/06 08:45:00;;;;;;;10.30;5.10;;;;;;;-143.90;100.00;58478.06;5070908;28;20804;-84
2021/10/06 08:47:25;;;;;;;19.37;10.10;;;;;;;-143.90;100.00;58478.06;5069943;28;20422;-76
2021/10/06 08:49:51;;;;;;;14.43;4.70;;;;;;;-143.90;100.00;58478.06;5085286;28;20415;-81
2021/10/06 08:52:17;;;;;;;13.77;5.80;;;;;;;-143.90;100.00;58478.06;5051624;28;20208;-74
2021/10/06 08:54:42;;;;;;;8.23;4.83;;;;;;;-143.90;100.00;58478.06;5069715;28;20185;-75
2021/10/06 08:57:15;;;;;;;10.97;4.00;;;;;;;-143.90;100.00;58478.06;5067872;28;20245;-79
2021/10/06 08:59:41;;;;;;;8.03;2.77;;;;;;;-143.90;100.00;58478.06;5070314;28;20238;-74
2021/10/06 09:02:12;;;;;;;9.60;3.63;;;;;;;-143.90;100.00;58478.06;5085811;28;20423;-74
2021/10/06 09:04:37;;;;;;;8.93;3.20;;;;;;;-143.90;100.00;58478.06;5070392;28;20164;-74
2021/10/06 09:07:05;;;;;;;7.00;3.40;;;;;;;-143.90;100.00;58478.06;5069742;28;20433;-74
2021/10/06 09:09:37;;;;;;;10.33;3.20;;;;;;;-143.90;100.00;58478.06;5070344;28;20195;-76
2021/10/06 09:12:14;;;;;;;14.53;3.87;;;;;;;-143.90;100.00;58478.06;5069870;28;21052;-74
2021/10/06 09:14:43;;;;;;;12.87;3.90;;;;;;;-143.90;100.00;58478.06;5069716;28;20446;-74
2021/10/06 09:17:16;;;;;;;11.30;3.47;;;;;;;-143.90;100.00;58478.06;5069693;28;20502;-74
2021/10/06 09:19:54;;;;;;;10.10;3.40;;;;;;;-143.90;100.00;58478.06;5070895;28;20407;-76
2021/10/06 09:22:22;;;;;;;22.83;4.70;;;;;;;-143.90;100.00;58478.06;5070031;28;21023;-73
2021/10/06 09:24:58;;;;;;;9.93;3.20;;;;;;;-143.90;100.00;58478.06;5069602;28;20827;-77
2021/10/06 09:27:30;;;;;;;13.43;3.80;;;;;;;-143.90;100.00;58478.06;5051800;28;20867;-80
2021/10/06 09:29:59;;;;;;;10.33;4.90;;;;;;;-143.90;100.00;58478.06;5069968;28;20452;-74
2021/10/06 09:32:29;;;;;;;15.70;9.50;;;;;;;-143.90;100.00;58478.06;5069998;28;20829;-77
2021/10/06 09:35:03;;;;;;;11.93;4.47;;;;;;;-143.90;100.00;58478.06;5070760;28;20442;-79
2021/10/06 09:37:30;;;;;;;9.80;3.57;;;;;;;-143.90;100.00;58478.06;5071539;28;20481;-76
2021/10/06 09:39:56;;;;;;;15.20;4.40;;;;;;;-143.90;100.00;58478.06;5051836;28;20498;-72
2021/10/06 09:42:22;;;;;;;13.00;3.63;;;;;;;-143.90;100.00;58478.06;5069672;28;20497;-75
2021/10/06 09:44:56;;;;;;;11.17;3.93;;;;;;;-143.90;100.00;58478.06;5051397;28;20502;-74
2021/10/06 09:47:22;;;;;;;15.87;5.97;;;;;;;-143.90;100.00;58478.06;5069586;28;20534;-76
2021/10/06 09:49:57;;;;;;;7.80;3.17;;;;;;;-143.90;100.00;58478.06;5068882;28;20450;-74
2021/10/06 09:52:27;;;;;;;9.13;3.33;;;;;;;-143.90;100.00;58478.06;5069385;28;20930;-73
2021/10/06 09:55:01;;;;;;;9.50;2.97;;;;;;;-143.90;100.00;58478.06;5068845;28;20453;-78
2021/10/06 09:57:37;;;;;;;12.37;2.40;;;;;;;-143.90;100.00;58478.06;5069017;28;20428;-74
2021/10/06 10:00:09;;;;;;;7.10;4.17;;;;;;;-143.90;100.00;58478.06;5069200;28;20407;-75
2021/10/06 10:02:36;;;;;;;15.30;3.73;;;;;;;-143.90;100.00;58478.06;5052844;28;20433;-77
2021/10/06 10:05:04;;;;;;;9.03;3.13;;;;;;;-143.90;100.00;58478.06;5071845;28;20576;-74
2021/10/06 10:07:29;;;;;;;7.90;3.60;;;;;;;-143.90;100.00;58478.06;5072762;28;20920;-74
2021/10/06 10:09:56;;;;;;;9.80;3.67;;;;;;;-143.90;100.00;58478.06;5072207;28;20430;-74
2021/10/06 10:12:24;;;;;;;10.50;3.97;;;;;;;-143.90;100.00;58478.06;5071909;28;20192;-72
2021/10/06 10:14:50;;;;;;;10.33;3.40;;;;;;;-143.90;100.00;58478.06;5071040;28;20442;-75
2021/10/06 10:17:16;;;;;;;11.40;4.03;;;;;;;-143.90;100.00;58478.06;5086169;28;20514;-75
2021/10/06 10:19:52;;;;;;;12.80;3.50;;;;;;;-143.90;100.00;58478.06;5072293;28;20418;-72
2021/10/06 10:22:20;;;;;;;9.63;2.50;;;;;;;-143.90;100.00;58478.06;5072001;28;20413;-74
2021/10/06 10:24:47;;;;;;;9.60;2.70;;;;;;;-143.90;100.00;58478.06;5057874;28;20414;-74
2021/10/06 10:27:16;;;;;;;18.63;4.07;;;;;;;-143.90;100.00;58478.06;5071724;28;20472;-73
2021/10/06 10:30:05;;;;;;;7.60;2.40;;;;;;;-143.90;100.00;58478.06;5071841;28;20501;-76
2021/10/06 10:32:45;;;;;;;8.80;3.50;;;;;;;-143.90;100.00;58478.06;5071950;28;20712;-75
2021/10/06 10:35:12;;;;;;;13.33;3.43;;;;;;;-143.90;100.00;58478.06;5071936;28;21030;-75
2021/10/06 10:37:51;;;;;;;5.87;2.40;;;;;;;-143.90;100.00;58478.06;5071715;28;20411;-71
2021/10/06 10:40:32;;;;;;;5.23;2.60;;;;;;;-143.90;100.00;58478.06;5071504;28;20908;-72
2021/10/06 10:43:16;;;;;;;10.77;3.23;;;;;;;-143.90;100.00;58478.06;5064372;28;20510;-73
2021/10/06 10:45:52;;;;;;;9.07;3.07;;;;;;;-143.90;100.00;58478.06;5068623;28;21086;-71
2021/10/06 10:48:29;;;;;;;11.43;2.60;;;;;;;-143.90;100.00;58478.06;5072440;28;20442;-74
2021/10/06 10:50:57;;;;;;;13.50;2.80;;;;;;;-143.90;100.00;58478.06;5071614;28;20410;-74
2021/10/06 10:53:50;;;;;;;6.73;2.50;;;;;;;-143.90;100.00;58478.06;5071139;28;20410;-74
2021/10/06 10:56:40;;;;;;;5.30;2.20;;;;;;;-143.90;100.00;58478.06;5070656;28;20454;-79
2021/10/06 10:59:07;;;;;;;11.00;3.50;;;;;;;-143.90;100.00;58478.06;5071775;28;20418;-73
2021/10/06 11:01:56;;;;;;;8.17;4.17;;;;;;;-143.90;100.00;58478.06;5087030;28;20897;-73
2021/10/06 11:04:35;;;;;;;7.00;2.87;;;;;;;-143.90;100.00;58478.06;5070895;28;20780;-74